createdAt,value
2019-02-27T00:02:13.662Z,5.39
2019-02-27T00:04:43.538Z,5.41
2019-02-27T00:07:13.491Z,5.37
2019-02-27T00:09:43.341Z,5.43
2019-02-27T00:12:13.003Z,5.29
2019-02-27T00:14:42.767Z,5.38
2019-02-27T00:17:15.079Z,5.17
2019-02-27T00:19:44.166Z,5.25
2019-02-27T00:22:14.955Z,5.14
2019-02-27T00:24:45.451Z,5.06
2019-02-27T00:27:16.537Z,5.07
2019-02-27T00:29:46.434Z,5.01
2019-02-27T00:32:18.674Z,5.10
2019-02-27T00:34:47.946Z,5.07
2019-02-27T00:37:19.018Z,4.97
2019-02-27T00:39:49.254Z,5.00
2019-02-27T00:42:20.685Z,5.18
2019-02-27T00:44:50.632Z,5.01
2019-02-27T00:47:20.774Z,4.91
2019-02-27T00:49:50.565Z,4.79
2019-02-27T00:52:20.369Z,4.85
2019-02-27T00:54:50.418Z,4.71
2019-02-27T00:57:21.579Z,4.66
2019-02-27T00:59:51.248Z,4.63
2019-02-27T01:02:21.053Z,4.52
2019-02-27T01:04:50.907Z,4.49
2019-02-27T01:07:21.449Z,4.46
2019-02-27T01:09:51.783Z,4.28
2019-02-27T01:12:22.877Z,4.30
2019-02-27T01:14:53.736Z,4.27
2019-02-27T01:17:24.418Z,4.11
2019-02-27T01:19:54.330Z,4.28
2019-02-27T01:22:24.107Z,4.18
2019-02-27T01:24:54.114Z,4.11
2019-02-27T01:27:23.863Z,4.10
2019-02-27T01:29:53.715Z,4.04
2019-02-27T01:32:23.576Z,4.02
2019-02-27T01:34:53.430Z,4.00
2019-02-27T01:37:23.365Z,3.95
2019-02-27T01:39:53.200Z,3.94
2019-02-27T01:42:23.168Z,3.97
2019-02-27T01:44:52.937Z,3.98
2019-02-27T01:47:22.978Z,3.97
2019-02-27T01:49:52.776Z,3.90
2019-02-27T01:52:22.459Z,3.77
2019-02-27T01:54:52.304Z,3.76
2019-02-27T01:57:22.209Z,3.81
2019-02-27T01:59:51.911Z,3.90
2019-02-27T02:02:22.638Z,4.10
2019-02-27T02:04:53.788Z,4.13
2019-02-27T02:07:23.822Z,4.07
2019-02-27T02:09:55.196Z,4.07
2019-02-27T02:12:28.658Z,3.97
2019-02-27T02:15:08.515Z,3.90
2019-02-27T02:18:18.947Z,3.87
2019-02-27T02:21:32.052Z,3.88
2019-02-27T02:24:39.373Z,3.84
2019-02-27T02:27:49.166Z,3.87
2019-02-27T02:31:09.697Z,3.93
2019-02-27T02:34:05.067Z,4.10
2019-02-27T02:37:13.769Z,4.12
2019-02-27T02:40:15.675Z,4.21
2019-02-27T02:43:50.468Z,4.21
2019-02-27T02:46:26.120Z,4.28
2019-02-27T02:49:09.231Z,4.40
2019-02-27T02:52:17.262Z,4.47
2019-02-27T02:55:48.827Z,4.27
2019-02-27T02:58:54.686Z,4.20
2019-02-27T03:01:49.388Z,4.24
2019-02-27T03:04:49.287Z,4.35
2019-02-27T03:07:47.264Z,4.35
2019-02-27T03:10:29.117Z,4.26
2019-02-27T03:13:50.132Z,4.22
2019-02-27T03:17:06.239Z,4.18
2019-02-27T03:19:56.820Z,4.23
2019-02-27T03:22:49.696Z,4.20
2019-02-27T03:26:03.748Z,4.21
2019-02-27T03:29:15.688Z,4.20
2019-02-27T03:32:11.982Z,4.20
2019-02-27T03:35:27.531Z,4.38
2019-02-27T03:38:41.327Z,4.13
2019-02-27T03:41:38.898Z,4.01
2019-02-27T03:45:07.374Z,3.95
2019-02-27T03:48:08.649Z,4.04
2019-02-27T03:51:15.711Z,4.03
2019-02-27T03:53:59.993Z,4.02
2019-02-27T03:57:08.401Z,4.20
2019-02-27T04:00:18.034Z,4.25
2019-02-27T04:03:18.738Z,4.23
2019-02-27T04:06:24.003Z,4.29
2019-02-27T04:08:58.334Z,4.51
2019-02-27T04:11:28.621Z,4.51
2019-02-27T04:14:04.743Z,4.59
2019-02-27T04:16:32.059Z,4.37
2019-02-27T04:19:04.594Z,4.28
2019-02-27T04:21:33.866Z,4.30
2019-02-27T04:24:03.754Z,4.27
2019-02-27T04:26:33.581Z,4.20
2019-02-27T04:29:04.428Z,4.18
2019-02-27T04:31:35.182Z,4.09
2019-02-27T04:34:05.066Z,4.06
2019-02-27T04:36:34.991Z,4.03
2019-02-27T04:39:05.578Z,4.16
2019-02-27T04:41:35.337Z,4.10
2019-02-27T04:44:06.059Z,4.18
2019-02-27T04:46:36.042Z,4.13
2019-02-27T04:49:05.784Z,4.18
2019-02-27T04:51:35.710Z,4.12
2019-02-27T04:54:07.270Z,4.18
2019-02-27T04:56:37.287Z,4.23
2019-02-27T04:59:06.988Z,4.22
2019-02-27T05:01:37.421Z,4.27
2019-02-27T05:04:07.229Z,4.27
2019-02-27T05:06:36.951Z,4.26
2019-02-27T05:09:08.019Z,4.23
2019-02-27T05:11:37.964Z,4.21
2019-02-27T05:14:07.746Z,4.21
2019-02-27T05:16:37.958Z,4.28
2019-02-27T05:19:07.891Z,4.30
2019-02-27T05:21:37.566Z,4.28
2019-02-27T05:24:08.561Z,4.32
2019-02-27T05:26:38.446Z,4.30
2019-02-27T05:29:08.436Z,4.35
2019-02-27T05:31:38.227Z,4.41
2019-02-27T05:34:12.675Z,4.36
2019-02-27T05:36:39.756Z,4.36
2019-02-27T05:39:09.493Z,4.42
2019-02-27T05:41:39.368Z,4.43
2019-02-27T05:44:09.196Z,4.45
2019-02-27T05:46:39.275Z,4.43
2019-02-27T05:49:09.228Z,4.44
2019-02-27T05:51:39.091Z,4.44
2019-02-27T05:54:08.949Z,4.46
2019-02-27T05:56:38.683Z,4.46
2019-02-27T05:59:08.433Z,4.39
2019-02-27T06:01:38.768Z,4.31
2019-02-27T06:04:08.523Z,4.25
2019-02-27T06:06:39.575Z,4.21
2019-02-27T06:09:10.388Z,4.29
2019-02-27T06:11:40.829Z,4.49
2019-02-27T06:14:10.775Z,4.47
2019-02-27T06:16:40.949Z,4.51
2019-02-27T06:19:10.993Z,4.50
2019-02-27T06:21:40.963Z,4.65
2019-02-27T06:24:12.568Z,4.73
2019-02-27T06:26:42.377Z,4.67
2019-02-27T06:29:12.265Z,4.72
2019-02-27T06:31:44.554Z,4.88
2019-02-27T06:34:14.361Z,4.75
2019-02-27T06:36:44.340Z,4.86
2019-02-27T06:39:14.193Z,4.90
2019-02-27T06:41:43.917Z,4.91
2019-02-27T06:44:13.952Z,4.99
2019-02-27T06:46:44.588Z,4.96
2019-02-27T06:49:17.305Z,4.91
2019-02-27T06:51:47.253Z,4.94
2019-02-27T06:54:18.342Z,4.98
2019-02-27T06:56:48.645Z,4.95
2019-02-27T06:59:18.445Z,5.00
2019-02-27T07:01:48.537Z,5.04
2019-02-27T07:04:18.294Z,5.04
2019-02-27T07:06:48.105Z,5.15
2019-02-27T07:09:17.961Z,5.05
2019-02-27T07:11:48.953Z,5.15
2019-02-27T07:14:18.894Z,5.07
2019-02-27T07:16:48.590Z,4.85
2019-02-27T07:19:18.440Z,5.08
2019-02-27T07:21:48.334Z,5.09
2019-02-27T07:24:18.353Z,5.13
2019-02-27T07:26:50.119Z,5.08
2019-02-27T07:29:21.948Z,5.10
2019-02-27T07:31:52.086Z,5.09
2019-02-27T07:34:22.504Z,5.22
2019-02-27T07:36:52.214Z,5.22
2019-02-27T07:39:22.100Z,5.17
2019-02-27T07:41:51.875Z,5.04
2019-02-27T07:44:24.237Z,4.98
2019-02-27T07:46:57.136Z,4.96
2019-02-27T07:49:25.581Z,5.04
2019-02-27T07:51:57.819Z,5.15
2019-02-27T07:54:29.054Z,5.25
2019-02-27T07:56:58.626Z,5.42
2019-02-27T07:59:28.535Z,5.46
2019-02-27T08:02:02.300Z,5.56
2019-02-27T08:04:30.954Z,5.84
2019-02-27T08:07:00.645Z,6.10
2019-02-27T08:09:30.778Z,6.25
2019-02-27T08:12:00.601Z,6.22
2019-02-27T08:14:30.561Z,6.03
2019-02-27T08:17:00.364Z,5.87
2019-02-27T08:19:30.127Z,5.79
2019-02-27T08:21:59.929Z,5.71
2019-02-27T08:24:29.688Z,5.71
2019-02-27T08:26:59.753Z,5.67
2019-02-27T08:29:30.816Z,5.68
2019-02-27T08:32:01.284Z,5.72
2019-02-27T08:34:31.487Z,5.66
2019-02-27T08:37:01.368Z,5.57
2019-02-27T08:39:31.725Z,5.59
2019-02-27T08:42:03.588Z,5.69
2019-02-27T08:44:33.329Z,5.80
2019-02-27T08:47:04.238Z,5.74
2019-02-27T08:49:34.235Z,5.68
2019-02-27T08:52:04.270Z,5.59
2019-02-27T08:54:34.008Z,5.58
2019-02-27T08:57:03.768Z,5.45
2019-02-27T08:59:33.561Z,5.42
2019-02-27T09:02:03.314Z,5.38
2019-02-27T09:04:33.118Z,5.47
2019-02-27T09:07:03.541Z,5.45
2019-02-27T09:09:33.588Z,5.39
2019-02-27T09:12:03.394Z,5.29
2019-02-27T09:14:33.421Z,5.28
2019-02-27T09:17:03.319Z,5.10
2019-02-27T09:19:33.129Z,5.11
2019-02-27T09:22:03.109Z,5.19
2019-02-27T09:24:33.103Z,5.15
2019-02-27T09:27:03.085Z,5.34
2019-02-27T09:29:32.962Z,5.38
2019-02-27T09:32:02.736Z,5.27
2019-02-27T09:34:33.038Z,5.19
2019-02-27T09:37:04.119Z,5.18
2019-02-27T09:39:35.147Z,5.18
2019-02-27T09:42:04.993Z,5.21
2019-02-27T09:44:36.638Z,5.23
2019-02-27T09:47:06.329Z,5.27
2019-02-27T09:49:40.314Z,5.28
2019-02-27T09:52:07.688Z,5.26
2019-02-27T09:54:37.623Z,5.26
2019-02-27T09:57:07.499Z,5.28
2019-02-27T09:59:37.372Z,5.41
2019-02-27T10:02:09.019Z,5.60
2019-02-27T10:04:38.827Z,5.66
2019-02-27T10:07:08.670Z,5.42
2019-02-27T10:09:40.355Z,5.54
2019-02-27T10:12:11.125Z,5.47
2019-02-27T10:14:40.971Z,6.01
2019-02-27T10:17:10.767Z,6.03
2019-02-27T10:19:40.596Z,6.10
2019-02-27T10:22:10.391Z,6.06
2019-02-27T10:24:40.300Z,6.10
2019-02-27T10:27:10.145Z,5.94
2019-02-27T10:29:40.035Z,6.00
2019-02-27T10:32:09.953Z,6.01
2019-02-27T10:34:42.324Z,6.19
2019-02-27T10:37:13.296Z,5.89
2019-02-27T10:39:43.800Z,6.01
2019-02-27T10:42:13.752Z,5.88
2019-02-27T10:44:43.692Z,6.09
2019-02-27T10:47:13.551Z,6.07
2019-02-27T10:49:43.373Z,6.10
2019-02-27T10:52:13.233Z,6.01
2019-02-27T10:54:44.377Z,6.05
2019-02-27T10:57:14.144Z,5.93
2019-02-27T10:59:43.941Z,5.86
2019-02-27T11:02:13.883Z,5.80
2019-02-27T11:04:43.800Z,5.87
2019-02-27T11:07:15.918Z,5.85
2019-02-27T11:09:45.499Z,5.59
2019-02-27T11:12:15.378Z,5.45
2019-02-27T11:14:45.243Z,5.46
2019-02-27T11:17:15.012Z,5.61
2019-02-27T11:19:44.804Z,5.65
2019-02-27T11:22:14.575Z,5.90
2019-02-27T11:24:44.277Z,5.82
2019-02-27T11:27:14.026Z,5.90
2019-02-27T11:29:44.074Z,6.09
2019-02-27T11:32:15.553Z,6.21
2019-02-27T11:34:45.548Z,5.93
2019-02-27T11:37:17.090Z,6.32
2019-02-27T11:39:46.875Z,6.46
2019-02-27T11:42:16.618Z,6.36
2019-02-27T11:44:49.404Z,6.29
2019-02-27T11:47:19.048Z,6.30
2019-02-27T11:49:48.728Z,6.33
2019-02-27T11:52:18.531Z,6.42
2019-02-27T11:54:48.493Z,6.24
2019-02-27T11:57:18.487Z,6.41
2019-02-27T11:59:48.291Z,6.32
2019-02-27T12:02:18.571Z,6.27
2019-02-27T12:04:48.218Z,6.13
2019-02-27T12:07:18.046Z,6.01
2019-02-27T12:09:49.228Z,5.97
2019-02-27T12:12:22.477Z,5.92
2019-02-27T12:14:50.447Z,5.81
2019-02-27T12:17:23.278Z,5.81
2019-02-27T12:19:53.171Z,5.87
2019-02-27T12:22:22.972Z,5.67
2019-02-27T12:24:53.476Z,5.64
2019-02-27T12:27:45.187Z,5.64
2019-02-27T12:29:54.859Z,5.82
2019-02-27T12:32:24.875Z,5.83
2019-02-27T12:34:54.946Z,5.89
2019-02-27T12:37:28.300Z,6.04
2019-02-27T12:39:56.684Z,6.09
2019-02-27T12:42:26.599Z,6.15
2019-02-27T12:44:56.407Z,6.14
2019-02-27T12:47:26.500Z,6.33
2019-02-27T12:49:56.239Z,6.35
2019-02-27T12:52:26.317Z,6.34
2019-02-27T12:54:59.157Z,6.47
2019-02-27T12:57:28.829Z,6.38
2019-02-27T12:59:59.712Z,6.45
2019-02-27T13:02:35.688Z,6.42
2019-02-27T13:05:01.065Z,6.50
2019-02-27T13:07:32.239Z,6.51
2019-02-27T13:10:02.253Z,6.50
2019-02-27T13:12:32.044Z,6.38
2019-02-27T13:15:06.615Z,6.44
2019-02-27T13:17:33.412Z,6.39
2019-02-27T13:20:03.272Z,6.36
2019-02-27T13:22:33.201Z,6.18
2019-02-27T13:25:02.855Z,5.94
2019-02-27T13:27:32.686Z,5.69
2019-02-27T13:30:08.602Z,5.74
2019-02-27T13:32:35.195Z,5.63
2019-02-27T13:35:05.189Z,5.68
2019-02-27T13:37:35.106Z,5.54
2019-02-27T13:40:07.704Z,5.66
2019-02-27T13:42:37.641Z,5.66
2019-02-27T13:45:12.631Z,5.68
2019-02-27T13:47:41.020Z,5.70
2019-02-27T13:50:11.135Z,5.70
2019-02-27T13:52:40.869Z,5.74
2019-02-27T13:55:11.908Z,5.71
2019-02-27T13:57:41.919Z,5.69
2019-02-27T14:00:20.959Z,5.73
2019-02-27T14:02:49.653Z,5.74
2019-02-27T14:05:19.735Z,5.80
2019-02-27T14:07:49.444Z,5.72
2019-02-27T14:10:20.733Z,5.80
2019-02-27T14:12:50.705Z,5.81
2019-02-27T14:15:20.537Z,5.92
2019-02-27T14:17:50.457Z,5.96
2019-02-27T14:20:21.041Z,5.93
2019-02-27T14:22:50.936Z,6.09
2019-02-27T14:25:22.224Z,6.04
2019-02-27T14:27:52.349Z,6.21
2019-02-27T14:30:24.049Z,6.12
2019-02-27T14:32:53.947Z,6.16
2019-02-27T14:35:24.023Z,6.15
2019-02-27T14:37:53.772Z,6.24
2019-02-27T14:40:23.922Z,6.18
2019-02-27T14:42:55.071Z,6.22
2019-02-27T14:45:25.085Z,6.30
2019-02-27T14:47:55.105Z,6.34
2019-02-27T14:50:25.367Z,6.29
2019-02-27T14:52:55.256Z,6.35
2019-02-27T14:55:25.285Z,6.34
2019-02-27T14:57:56.252Z,6.39
2019-02-27T15:00:27.884Z,6.32
2019-02-27T15:02:57.779Z,6.39
2019-02-27T15:05:27.633Z,6.32
2019-02-27T15:07:57.510Z,6.38
2019-02-27T15:10:27.834Z,6.35
2019-02-27T15:12:57.685Z,6.20
2019-02-27T15:15:29.098Z,6.22
2019-02-27T15:17:59.063Z,6.21
2019-02-27T15:20:28.896Z,6.27
2019-02-27T15:22:58.763Z,6.33
2019-02-27T15:25:28.592Z,6.24
2019-02-27T15:27:59.908Z,6.20
2019-02-27T15:30:30.015Z,6.25
2019-02-27T15:33:04.347Z,6.19
2019-02-27T15:35:32.484Z,6.10
2019-02-27T15:38:02.389Z,6.02
2019-02-27T15:40:32.250Z,6.01
2019-02-27T15:43:10.651Z,6.05
2019-02-27T15:45:34.212Z,5.97
2019-02-27T15:48:06.977Z,5.99
2019-02-27T15:50:37.318Z,6.02
2019-02-27T15:53:07.134Z,5.93
2019-02-27T15:55:37.899Z,5.95
2019-02-27T15:58:07.763Z,5.90
2019-02-27T16:00:37.808Z,5.83
2019-02-27T16:03:10.953Z,5.81
2019-02-27T16:05:40.134Z,5.86
2019-02-27T16:08:10.315Z,5.64
2019-02-27T16:10:43.718Z,5.69
2019-02-27T16:13:11.905Z,5.39
2019-02-27T16:15:41.700Z,5.41
2019-02-27T16:18:11.594Z,5.35
2019-02-27T16:20:41.358Z,5.20
2019-02-27T16:23:11.143Z,5.35
2019-02-27T16:25:40.902Z,5.42
2019-02-27T16:28:12.038Z,5.30
2019-02-27T16:30:42.132Z,5.19
2019-02-27T16:33:12.122Z,5.24
2019-02-27T16:35:43.069Z,5.12
2019-02-27T16:38:13.256Z,5.16
2019-02-27T16:40:43.129Z,5.15
2019-02-27T16:43:13.474Z,5.01
2019-02-27T16:45:44.170Z,5.08
2019-02-27T16:48:14.088Z,5.05
2019-02-27T16:50:45.566Z,4.93
2019-02-27T16:53:18.728Z,4.94
2019-02-27T16:55:48.178Z,4.96
2019-02-27T16:58:18.253Z,4.92
2019-02-27T17:00:54.361Z,4.89
2019-02-27T17:03:21.306Z,4.78
2019-02-27T17:05:50.994Z,4.77
2019-02-27T17:08:20.945Z,4.76
2019-02-27T17:10:51.901Z,4.79
2019-02-27T17:13:22.260Z,4.82
2019-02-27T17:15:52.351Z,4.81
2019-02-27T17:18:27.833Z,4.82
2019-02-27T17:20:53.708Z,4.80
2019-02-27T17:23:23.559Z,4.80
2019-02-27T17:25:53.171Z,4.69
2019-02-27T17:28:25.596Z,4.82
2019-02-27T17:30:55.365Z,4.67
2019-02-27T17:33:25.184Z,4.45
2019-02-27T17:35:58.568Z,4.37
2019-02-27T17:38:26.666Z,4.44
2019-02-27T17:40:56.380Z,4.21
2019-02-27T17:43:29.429Z,4.07
2019-02-27T17:45:57.952Z,4.03
2019-02-27T17:48:27.964Z,4.04
2019-02-27T17:50:57.718Z,4.06
2019-02-27T17:53:27.628Z,4.06
2019-02-27T17:55:58.768Z,4.08
2019-02-27T17:58:31.868Z,4.07
2019-02-27T18:01:02.573Z,4.08
2019-02-27T18:03:32.485Z,4.06
2019-02-27T18:06:02.310Z,4.06
2019-02-27T18:08:32.477Z,4.05
2019-02-27T18:11:02.245Z,4.14
2019-02-27T18:13:35.332Z,4.26
2019-02-27T18:16:03.767Z,4.31
2019-02-27T18:18:33.629Z,4.34
2019-02-27T18:21:03.652Z,4.39
2019-02-27T18:23:33.636Z,4.41
2019-02-27T18:26:03.280Z,4.40
2019-02-27T18:28:33.700Z,4.32
2019-02-27T18:31:03.814Z,4.29
2019-02-27T18:33:33.529Z,4.30
2019-02-27T18:36:04.863Z,4.31
2019-02-27T18:38:35.015Z,4.30
2019-02-27T18:41:05.113Z,4.30
2019-02-27T18:43:35.008Z,4.30
2019-02-27T18:46:04.841Z,4.22
2019-02-27T18:48:34.917Z,4.30
2019-02-27T18:51:04.889Z,4.22
2019-02-27T18:53:34.817Z,4.19
2019-02-27T18:56:04.573Z,4.10
2019-02-27T18:58:34.356Z,4.06
2019-02-27T19:01:09.555Z,4.11
2019-02-27T19:03:38.038Z,4.10
2019-02-27T19:06:07.879Z,4.05
2019-02-27T19:08:37.573Z,4.07
2019-02-27T19:11:08.623Z,4.26
2019-02-27T19:13:38.543Z,4.32
2019-02-27T19:16:10.700Z,4.33
2019-02-27T19:18:41.137Z,4.42
2019-02-27T19:21:11.858Z,4.42
2019-02-27T19:23:41.572Z,4.41
2019-02-27T19:26:13.240Z,4.43
2019-02-27T19:28:42.844Z,4.44
2019-02-27T19:31:16.400Z,4.39
2019-02-27T19:33:44.164Z,4.40
2019-02-27T19:36:19.271Z,4.30
2019-02-27T19:38:47.555Z,4.28
2019-02-27T19:41:18.654Z,4.23
2019-02-27T19:43:48.442Z,4.21
2019-02-27T19:46:18.111Z,4.25
2019-02-27T19:48:48.273Z,4.20
2019-02-27T19:51:20.190Z,4.18
2019-02-27T19:53:50.113Z,4.17
2019-02-27T19:56:20.226Z,4.21
2019-02-27T19:58:51.161Z,4.27
2019-02-27T20:01:21.990Z,4.31
2019-02-27T20:03:53.160Z,4.09
2019-02-27T20:06:24.615Z,4.30
2019-02-27T20:08:54.925Z,4.38
2019-02-27T20:11:26.401Z,4.29
2019-02-27T20:13:56.217Z,4.28
2019-02-27T20:16:26.488Z,4.34
2019-02-27T20:18:56.227Z,4.40
2019-02-27T20:21:26.159Z,4.33
2019-02-27T20:24:01.091Z,4.30
2019-02-27T20:26:27.691Z,4.26
2019-02-27T20:28:57.626Z,4.22
2019-02-27T20:31:27.460Z,4.31
2019-02-27T20:33:57.216Z,4.28
2019-02-27T20:36:29.900Z,4.23
2019-02-27T20:39:00.441Z,4.29
2019-02-27T20:41:30.186Z,4.45
2019-02-27T20:44:00.384Z,4.37
2019-02-27T20:46:31.630Z,4.28
2019-02-27T20:49:01.494Z,4.18
2019-02-27T20:51:31.596Z,4.22
2019-02-27T20:54:02.707Z,4.18
2019-02-27T20:56:35.943Z,4.14
2019-02-27T20:59:04.522Z,4.06
2019-02-27T21:01:34.396Z,4.10
2019-02-27T21:04:04.534Z,4.10
2019-02-27T21:06:35.720Z,3.95
2019-02-27T21:09:11.104Z,3.92
2019-02-27T21:11:39.124Z,4.00
2019-02-27T21:14:09.272Z,4.03
2019-02-27T21:16:43.159Z,4.12
2019-02-27T21:19:11.693Z,4.25
2019-02-27T21:21:41.460Z,4.22
2019-02-27T21:24:11.312Z,4.17
2019-02-27T21:26:41.074Z,4.22
2019-02-27T21:29:11.049Z,4.18
2019-02-27T21:31:40.842Z,4.20
2019-02-27T21:34:10.645Z,4.17
2019-02-27T21:36:40.498Z,4.30
2019-02-27T21:39:10.734Z,4.17
2019-02-27T21:41:42.338Z,4.15
2019-02-27T21:44:12.402Z,4.17
2019-02-27T21:46:46.215Z,4.05
2019-02-27T21:49:13.825Z,4.04
2019-02-27T21:51:47.703Z,3.97
2019-02-27T21:54:16.539Z,4.00
2019-02-27T21:56:46.246Z,4.01
2019-02-27T21:59:16.135Z,4.04
2019-02-27T22:01:45.984Z,4.06
2019-02-27T22:04:15.810Z,4.03
2019-02-27T22:06:45.778Z,3.97
2019-02-27T22:09:15.817Z,3.94
2019-02-27T22:11:45.537Z,3.92
2019-02-27T22:14:16.607Z,3.97
2019-02-27T22:16:47.017Z,3.93
2019-02-27T22:19:18.919Z,3.85
2019-02-27T22:21:48.365Z,3.84
2019-02-27T22:24:21.024Z,3.84
2019-02-27T22:26:50.773Z,3.82
2019-02-27T22:29:20.589Z,3.86
2019-02-27T22:31:50.392Z,3.82
2019-02-27T22:34:21.481Z,3.71
2019-02-27T22:36:51.346Z,3.60
2019-02-27T22:39:21.267Z,3.53
2019-02-27T22:41:51.139Z,3.45
2019-02-27T22:44:20.788Z,3.56
2019-02-27T22:46:50.401Z,3.70
2019-02-27T22:49:20.328Z,3.69
2019-02-27T22:51:50.356Z,3.66
2019-02-27T22:54:20.209Z,3.66
2019-02-27T22:56:51.385Z,3.73
2019-02-27T22:59:21.451Z,3.76
2019-02-27T23:01:53.661Z,3.92
2019-02-27T23:04:23.524Z,3.88
2019-02-27T23:06:53.462Z,3.82
2019-02-27T23:09:25.589Z,3.91
2019-02-27T23:11:55.020Z,3.84
2019-02-27T23:14:24.953Z,3.84
2019-02-27T23:16:54.993Z,3.67
2019-02-27T23:19:24.844Z,3.77
2019-02-27T23:21:57.527Z,3.95
2019-02-27T23:24:26.379Z,3.84
2019-02-27T23:26:56.247Z,3.74
2019-02-27T23:29:26.272Z,3.65
2019-02-27T23:31:56.015Z,3.64
2019-02-27T23:34:25.792Z,3.64
2019-02-27T23:36:55.817Z,3.64
2019-02-27T23:39:26.275Z,3.54
2019-02-27T23:41:56.563Z,3.53
2019-02-27T23:44:27.361Z,3.48
2019-02-27T23:46:57.494Z,3.42
2019-02-27T23:49:27.875Z,3.26
2019-02-27T23:51:57.800Z,3.11
2019-02-27T23:54:27.562Z,3.13
2019-02-27T23:56:57.516Z,3.20
2019-02-27T23:59:27.328Z,3.12
